Time;durP1;ratioP1;P1;durP2;ratioP2;P2;SDS_P1;SDS_P2;PMS_P1;PMS_P2;Temp;Humidity;BMP_temperature;BMP_pressure;BME280_temperature;BME280_humidity;BME280_pressure;Samples;Min_cycle;Max_cycle;Signal;HPM_P1;HPM_P2
2023/10/21 00:00:15;;;;;;;;;;;20.00;68.50;;;;;;5019598;28;1435;-66
2023/10/21 00:02:41;;;;;;;;;;;20.00;68.50;;;;;;5021624;28;1262;-66
2023/10/21 00:05:06;;;;;;;;;;;20.00;68.50;;;;;;5019570;28;1288;-66
2023/10/21 00:07:32;;;;;;;;;;;20.00;68.60;;;;;;5023947;28;1259;-67
2023/10/21 00:09:58;;;;;;;;;;;20.00;69.40;;;;;;5019690;28;1382;-66
2023/10/21 00:12:25;;;;;;;;;;;20.00;68.60;;;;;;5019057;28;1463;-66
2023/10/21 00:14:50;;;;;;;;;;;20.00;68.60;;;;;;5023121;28;1966;-66
2023/10/21 00:17:16;;;;;;;;;;;20.00;68.60;;;;;;5020921;28;1503;-66
2023/10/21 00:19:41;;;;;;;;;;;20.00;68.60;;;;;;5022075;28;1309;-66
2023/10/21 00:22:07;;;;;;;;;;;20.00;68.70;;;;;;5023309;28;1326;-66
2023/10/21 00:24:32;;;;;;;;;;;20.00;68.60;;;;;;5024195;28;1419;-66
2023/10/21 00:26:58;;;;;;;;;;;20.00;68.60;;;;;;5020443;28;1409;-66
2023/10/21 00:29:23;;;;;;;;;;;19.90;68.60;;;;;;5036563;28;1586;-66
2023/10/21 00:31:49;;;;;;;;;;;20.00;68.70;;;;;;5059862;23;1899;-70
2023/10/21 00:34:14;;;;;;;;;;;20.00;68.70;;;;;;5044166;28;1973;-70
2023/10/21 00:36:40;;;;;;;;;;;20.00;68.60;;;;;;5027226;28;1136;-70
2023/10/21 00:39:10;;;;;;;;;;;20.00;68.70;;;;;;5039793;28;1458;-70
2023/10/21 00:41:37;;;;;;;;;;;20.00;68.80;;;;;;5026988;28;1322;-70
2023/10/21 00:44:03;;;;;;;;;;;19.90;68.70;;;;;;5021539;28;1433;-70
2023/10/21 00:46:29;;;;;;;;;;;20.00;68.80;;;;;;5022028;28;1366;-70
2023/10/21 00:48:55;;;;;;;;;;;20.00;68.80;;;;;;5005812;28;1430;-70
2023/10/21 00:51:20;;;;;;;;;;;19.90;68.70;;;;;;5019674;28;1366;-70
2023/10/21 00:53:45;;;;;;;;;;;19.90;68.80;;;;;;5021552;28;1902;-70
2023/10/21 00:56:11;;;;;;;;;;;20.00;68.80;;;;;;5021530;28;1399;-70
2023/10/21 00:58:37;;;;;;;;;;;19.90;68.80;;;;;;5021291;28;1366;-70
2023/10/21 01:01:06;;;;;;;;;;;19.90;68.80;;;;;;5023004;28;1226;-70
2023/10/21 01:03:31;;;;;;;;;;;19.90;68.90;;;;;;5024626;28;1322;-69
2023/10/21 01:05:57;;;;;;;;;;;19.90;68.90;;;;;;5022345;28;1248;-70
2023/10/21 01:08:22;;;;;;;;;;;19.90;68.90;;;;;;5021269;28;1415;-70
2023/10/21 01:10:47;;;;;;;;;;;19.90;68.90;;;;;;5018828;28;1289;-70
2023/10/21 01:13:13;;;;;;;;;;;19.90;68.90;;;;;;5027694;28;1969;-70
2023/10/21 01:15:38;;;;;;;;;;;19.90;68.90;;;;;;5021939;28;936;-70
2023/10/21 01:18:04;;;;;;;;;;;19.90;69.00;;;;;;5006132;28;1511;-70
2023/10/21 01:20:29;;;;;;;;;;;19.90;69.00;;;;;;5037633;28;1420;-70
2023/10/21 01:22:56;;;;;;;;;;;19.90;69.00;;;;;;5022407;28;1103;-70
2023/10/21 01:25:22;;;;;;;;;;;19.90;69.00;;;;;;5021592;28;1005;-70
2023/10/21 01:27:51;;;;;;;;;;;19.90;69.00;;;;;;5021224;28;1186;-70
2023/10/21 01:30:19;;;;;;;;;;;19.90;69.00;;;;;;5021167;28;1683;-70
2023/10/21 01:32:45;;;;;;;;;;;19.90;69.80;;;;;;5020036;28;1346;-70
2023/10/21 01:35:11;;;;;;;;;;;19.90;69.10;;;;;;5017804;28;1906;-70
2023/10/21 01:37:36;;;;;;;;;;;19.90;69.10;;;;;;5018417;28;1405;-70
2023/10/21 01:40:02;;;;;;;;;;;19.90;69.10;;;;;;5021854;28;1570;-69
2023/10/21 01:42:27;;;;;;;;;;;19.90;69.10;;;;;;5021602;28;1179;-70
2023/10/21 01:44:55;;;;;;;;;;;19.90;69.10;;;;;;5020615;28;1256;-70
2023/10/21 01:47:21;;;;;;;;;;;19.90;69.20;;;;;;5019394;28;1227;-70
2023/10/21 01:49:47;;;;;;;;;;;19.90;69.10;;;;;;5016196;28;1252;-70
2023/10/21 01:52:13;;;;;;;;;;;19.90;69.10;;;;;;5019979;28;1406;-70
2023/10/21 01:54:42;;;;;;;;;;;19.90;69.20;;;;;;5021190;28;1883;-70
2023/10/21 01:57:08;;;;;;;;;;;19.90;69.20;;;;;;5018535;28;1429;-70
2023/10/21 01:59:36;;;;;;;;;;;19.90;69.20;;;;;;5019590;28;1275;-69
2023/10/21 02:02:02;;;;;;;;;;;19.90;69.20;;;;;;5019291;28;1275;-70
2023/10/21 02:04:27;;;;;;;;;;;19.90;69.20;;;;;;5018537;28;1468;-70
2023/10/21 02:06:53;;;;;;;;;;;19.90;69.20;;;;;;5019766;28;1518;-70
2023/10/21 02:09:19;;;;;;;;;;;19.90;69.20;;;;;;5016001;28;1477;-70
2023/10/21 02:11:44;;;;;;;;;;;19.90;69.20;;;;;;5016404;28;1357;-70
2023/10/21 02:14:10;;;;;;;;;;;19.90;69.30;;;;;;5022582;28;1918;-70
2023/10/21 02:16:35;;;;;;;;;;;19.90;69.30;;;;;;5019470;28;1594;-70
2023/10/21 02:19:01;;;;;;;;;;;19.90;69.30;;;;;;5020853;28;1274;-70
2023/10/21 02:21:26;;;;;;;;;;;19.90;69.30;;;;;;5018496;28;1228;-69
2023/10/21 02:23:51;;;;;;;;;;;19.90;69.30;;;;;;5019192;28;988;-70
2023/10/21 02:26:17;;;;;;;;;;;19.90;69.40;;;;;;5019215;28;1499;-70
2023/10/21 02:28:42;;;;;;;;;;;19.90;69.40;;;;;;5020355;28;1176;-70
2023/10/21 02:31:09;;;;;;;;;;;19.90;69.40;;;;;;5002734;28;1381;-70
2023/10/21 02:33:34;;;;;;;;;;;19.90;69.40;;;;;;5019596;28;1989;-70
2023/10/21 02:36:00;;;;;;;;;;;19.80;69.30;;;;;;5019704;28;1247;-70
2023/10/21 02:38:25;;;;;;;;;;;19.90;69.40;;;;;;5017520;28;1450;-70
2023/10/21 02:40:51;;;;;;;;;;;19.80;69.40;;;;;;5020911;28;1310;-70
2023/10/21 02:43:16;;;;;;;;;;;19.80;69.40;;;;;;5021750;28;1287;-70
2023/10/21 02:45:42;;;;;;;;;;;19.80;69.40;;;;;;5022486;28;1256;-71
2023/10/21 02:48:08;;;;;;;;;;;19.80;69.40;;;;;;5019664;28;1243;-69
2023/10/21 02:50:33;;;;;;;;;;;19.80;69.40;;;;;;5022916;28;1442;-70
2023/10/21 02:53:02;;;;;;;;;;;19.80;69.40;;;;;;5019465;28;1891;-70
2023/10/21 02:55:29;;;;;;;;;;;19.80;69.40;;;;;;5019203;28;1427;-69
2023/10/21 02:57:54;;;;;;;;;;;19.80;69.50;;;;;;5016542;28;1219;-69
2023/10/21 03:00:21;;;;;;;;;;;19.80;69.50;;;;;;5019083;28;1415;-70
2023/10/21 03:02:48;;;;;;;;;;;19.80;69.50;;;;;;5020735;28;1176;-70
2023/10/21 03:05:14;;;;;;;;;;;19.80;69.50;;;;;;5024165;28;1486;-70
2023/10/21 03:07:39;;;;;;;;;;;19.80;69.50;;;;;;5023120;28;1426;-70
2023/10/21 03:10:06;;;;;;;;;;;19.80;69.50;;;;;;5023715;28;1213;-70
2023/10/21 03:12:32;;;;;;;;;;;19.80;69.50;;;;;;5026525;28;1392;-70
2023/10/21 03:14:58;;;;;;;;;;;19.80;69.50;;;;;;5022928;28;1898;-70
2023/10/21 03:17:23;;;;;;;;;;;19.80;69.50;;;;;;5023795;28;1607;-70
2023/10/21 03:19:49;;;;;;;;;;;19.80;69.50;;;;;;5023419;28;1390;-70
2023/10/21 03:22:15;;;;;;;;;;;19.80;69.50;;;;;;5023615;28;1482;-70
2023/10/21 03:24:40;;;;;;;;;;;19.80;69.60;;;;;;5020751;28;1279;-70
2023/10/21 03:27:06;;;;;;;;;;;19.80;69.60;;;;;;5025482;28;1216;-70
2023/10/21 03:29:31;;;;;;;;;;;19.80;69.60;;;;;;5021726;28;1284;-70
2023/10/21 03:31:57;;;;;;;;;;;19.80;69.60;;;;;;5026945;28;1470;-70
2023/10/21 03:34:22;;;;;;;;;;;19.80;69.60;;;;;;5022857;28;1942;-70
2023/10/21 03:36:48;;;;;;;;;;;19.80;69.60;;;;;;5021171;28;1288;-70
2023/10/21 03:39:14;;;;;;;;;;;19.80;69.70;;;;;;5022451;28;1568;-70
2023/10/21 03:41:39;;;;;;;;;;;19.80;69.60;;;;;;5013136;28;1416;-70
2023/10/21 03:44:05;;;;;;;;;;;19.80;69.60;;;;;;5022119;28;1259;-69
2023/10/21 03:46:30;;;;;;;;;;;19.80;69.60;;;;;;5022618;28;1239;-70
2023/10/21 03:48:56;;;;;;;;;;;19.80;69.60;;;;;;5021171;28;1236;-70
2023/10/21 03:51:22;;;;;;;;;;;19.80;69.60;;;;;;5022980;28;1420;-71
2023/10/21 03:53:47;;;;;;;;;;;19.80;69.70;;;;;;5007302;28;1930;-70
2023/10/21 03:56:13;;;;;;;;;;;19.80;69.60;;;;;;5021829;28;1180;-69
2023/10/21 03:58:39;;;;;;;;;;;19.80;69.70;;;;;;5024964;28;990;-70
2023/10/21 04:01:05;;;;;;;;;;;19.80;69.70;;;;;;5023759;28;1220;-70
2023/10/21 04:03:30;;;;;;;;;;;19.80;69.80;;;;;;5020855;28;1021;-70
2023/10/21 04:05:56;;;;;;;;;;;19.70;69.60;;;;;;5024142;28;960;-70
2023/10/21 04:08:22;;;;;;;;;;;19.80;69.70;;;;;;5021039;28;935;-70
2023/10/21 04:10:47;;;;;;;;;;;19.80;70.50;;;;;;5020863;28;1379;-70
2023/10/21 04:13:13;;;;;;;;;;;19.80;69.70;;;;;;5022372;28;1898;-70
2023/10/21 04:15:39;;;;;;;;;;;19.70;69.70;;;;;;5021004;28;1289;-70
2023/10/21 04:18:04;;;;;;;;;;;19.80;69.70;;;;;;5024570;28;1295;-70
2023/10/21 04:20:33;;;;;;;;;;;19.80;69.80;;;;;;5023324;28;1401;-70
2023/10/21 04:22:59;;;;;;;;;;;19.80;69.80;;;;;;5020021;28;1241;-70
2023/10/21 04:25:25;;;;;;;;;;;19.80;69.80;;;;;;5021302;28;1495;-70
2023/10/21 04:27:50;;;;;;;;;;;19.80;69.80;;;;;;5023619;28;1376;-70
2023/10/21 04:30:16;;;;;;;;;;;19.80;69.80;;;;;;5019362;28;1481;-70
2023/10/21 04:32:41;;;;;;;;;;;19.80;69.80;;;;;;5022901;28;890;-70
2023/10/21 04:35:08;;;;;;;;;;;19.80;69.80;;;;;;5024799;28;1974;-69
2023/10/21 04:37:34;;;;;;;;;;;19.80;69.80;;;;;;5020750;28;1519;-69
2023/10/21 04:39:59;;;;;;;;;;;19.80;69.80;;;;;;5020900;28;1373;-70
2023/10/21 04:42:25;;;;;;;;;;;19.80;69.80;;;;;;5023537;28;1335;-70
2023/10/21 04:44:51;;;;;;;;;;;19.70;69.80;;;;;;5023012;28;1352;-70
2023/10/21 04:47:17;;;;;;;;;;;19.80;69.90;;;;;;5020281;28;1504;-70
2023/10/21 04:49:45;;;;;;;;;;;19.70;69.80;;;;;;5021634;28;1458;-70
2023/10/21 04:52:11;;;;;;;;;;;19.70;69.80;;;;;;5021438;28;1473;-70
2023/10/21 04:54:36;;;;;;;;;;;19.80;69.90;;;;;;5016952;28;1906;-70
2023/10/21 04:57:02;;;;;;;;;;;19.70;69.80;;;;;;5021155;28;1252;-70
2023/10/21 04:59:27;;;;;;;;;;;19.70;69.80;;;;;;5018878;28;1544;-70
2023/10/21 05:01:53;;;;;;;;;;;19.70;69.90;;;;;;5021502;28;1501;-70
2023/10/21 05:04:18;;;;;;;;;;;19.70;69.90;;;;;;5020934;28;1528;-70
2023/10/21 05:06:43;;;;;;;;;;;19.70;69.80;;;;;;5019584;28;1151;-70
2023/10/21 05:09:10;;;;;;;;;;;19.70;69.90;;;;;;5018252;28;1251;-70
2023/10/21 05:11:35;;;;;;;;;;;19.70;69.90;;;;;;5022540;28;1569;-69
2023/10/21 05:14:01;;;;;;;;;;;19.70;69.90;;;;;;5021470;28;1898;-70
2023/10/21 05:16:26;;;;;;;;;;;19.70;69.90;;;;;;5023188;28;1320;-70
2023/10/21 05:18:52;;;;;;;;;;;19.70;69.80;;;;;;5023665;28;1313;-70
2023/10/21 05:21:17;;;;;;;;;;;19.80;69.80;;;;;;5021806;28;1421;-70
2023/10/21 05:23:43;;;;;;;;;;;19.80;69.80;;;;;;5022834;28;1469;-70
2023/10/21 05:26:08;;;;;;;;;;;19.90;69.80;;;;;;5019553;28;1315;-70
2023/10/21 05:28:34;;;;;;;;;;;20.00;69.80;;;;;;5019121;28;1957;-68
2023/10/21 05:31:01;;;;;;;;;;;20.00;69.80;;;;;;5019871;28;2150;-69
2023/10/21 05:33:26;;;;;;;;;;;20.20;69.60;;;;;;5022200;28;1957;-71
2023/10/21 05:35:52;;;;;;;;;;;20.30;69.10;;;;;;5019113;28;1426;-73
2023/10/21 05:38:18;;;;;;;;;;;20.40;68.80;;;;;;5022555;28;1249;-70
2023/10/21 05:40:44;;;;;;;;;;;20.60;68.40;;;;;;5020390;28;1607;-69
2023/10/21 05:43:10;;;;;;;;;;;20.70;68.00;;;;;;5023539;28;1282;-71
2023/10/21 05:45:35;;;;;;;;;;;20.80;67.60;;;;;;5006984;28;4233;-68
2023/10/21 05:48:01;;;;;;;;;;;20.90;67.30;;;;;;4994053;28;8116;-71
2023/10/21 05:50:26;;;;;;;;;;;21.10;67.00;;;;;;5019298;28;1225;-70
2023/10/21 05:52:52;;;;;;;;;;;21.10;66.60;;;;;;5003153;28;1377;-69
2023/10/21 05:55:17;;;;;;;;;;;21.30;66.40;;;;;;5016866;28;1918;-68
2023/10/21 05:57:43;;;;;;;;;;;21.30;66.00;;;;;;5018623;28;1441;-70
2023/10/21 06:00:09;;;;;;;;;;;21.40;65.80;;;;;;5018052;28;1346;-69
2023/10/21 06:02:34;;;;;;;;;;;21.40;65.40;;;;;;5019475;28;1370;-70
2023/10/21 06:05:00;;;;;;;;;;;21.50;65.20;;;;;;5021457;28;1504;-70
2023/10/21 06:07:25;;;;;;;;;;;21.60;65.00;;;;;;5022748;28;1434;-70
2023/10/21 06:09:51;;;;;;;;;;;21.60;64.70;;;;;;5019193;28;1136;-68
2023/10/21 06:12:17;;;;;;;;;;;21.70;64.60;;;;;;5018976;28;1381;-68
2023/10/21 06:14:42;;;;;;;;;;;21.70;64.50;;;;;;5024912;28;1919;-69
2023/10/21 06:17:08;;;;;;;;;;;21.70;64.30;;;;;;5021230;28;1217;-68
2023/10/21 06:19:33;;;;;;;;;;;21.70;64.20;;;;;;5017458;28;1242;-68
2023/10/21 06:21:59;;;;;;;;;;;21.80;64.30;;;;;;5015149;28;1316;-69
2023/10/21 06:24:24;;;;;;;;;;;21.80;64.20;;;;;;5019243;28;1248;-70
2023/10/21 06:26:50;;;;;;;;;;;21.80;64.20;;;;;;5018109;28;1203;-70
2023/10/21 06:29:15;;;;;;;;;;;21.80;64.20;;;;;;5019726;28;1562;-68
2023/10/21 06:31:41;;;;;;;;;;;21.80;64.20;;;;;;5020577;28;1395;-71
2023/10/21 06:34:08;;;;;;;;;;;21.80;64.20;;;;;;5018642;28;1897;-69
2023/10/21 06:36:33;;;;;;;;;;;21.80;64.20;;;;;;5018367;28;1298;-71
2023/10/21 06:38:59;;;;;;;;;;;21.80;64.10;;;;;;5017102;28;1017;-71
2023/10/21 06:41:25;;;;;;;;;;;21.80;64.20;;;;;;5020148;28;1370;-70
2023/10/21 06:43:51;;;;;;;;;;;21.80;64.10;;;;;;5019686;28;1556;-72
2023/10/21 06:46:16;;;;;;;;;;;21.80;64.10;;;;;;5017740;28;1626;-68
2023/10/21 06:48:43;;;;;;;;;;;21.80;64.10;;;;;;5052584;23;3766;-67
2023/10/21 06:51:08;;;;;;;;;;;21.80;64.00;;;;;;5068143;28;1427;-66
2023/10/21 06:53:33;;;;;;;;;;;21.80;64.10;;;;;;5065966;28;1979;-67
2023/10/21 06:55:59;;;;;;;;;;;21.80;64.10;;;;;;5065673;28;1412;-66
2023/10/21 06:58:27;;;;;;;;;;;21.80;64.10;;;;;;5060033;28;1394;-67
2023/10/21 07:00:53;;;;;;;;;;;21.80;64.10;;;;;;5038902;28;1195;-67
2023/10/21 07:03:18;;;;;;;;;;;21.80;64.10;;;;;;5057194;28;1499;-66
2023/10/21 07:05:45;;;;;;;;;;;21.80;64.10;;;;;;5037568;28;1439;-66
2023/10/21 07:08:11;;;;;;;;;;;21.80;64.20;;;;;;5040950;28;1476;-67
2023/10/21 07:10:38;;;;;;;;;;;21.80;64.20;;;;;;5038946;28;1336;-67
2023/10/21 07:13:03;;;;;;;;;;;21.70;64.20;;;;;;5035056;28;1618;-66
2023/10/21 07:15:31;;;;;;;;;;;21.70;64.20;;;;;;5037148;28;1520;-66
2023/10/21 07:17:57;;;;;;;;;;;21.70;64.30;;;;;;5040146;28;1420;-66
2023/10/21 07:20:23;;;;;;;;;;;21.70;64.40;;;;;;5038116;28;2025;-66
2023/10/21 07:22:49;;;;;;;;;;;21.70;64.40;;;;;;5045089;28;1560;-67
2023/10/21 07:25:15;;;;;;;;;;;21.70;65.20;;;;;;5038726;28;1950;-66
2023/10/21 07:27:40;;;;;;;;;;;21.60;64.50;;;;;;5045445;28;2058;-67
2023/10/21 07:30:06;;;;;;;;;;;21.60;65.00;;;;;;5038841;28;1864;-66
2023/10/21 07:32:32;;;;;;;;;;;21.60;65.40;;;;;;5041683;28;1412;-67
2023/10/21 07:34:57;;;;;;;;;;;21.60;65.60;;;;;;5040910;28;1898;-67
2023/10/21 07:37:23;;;;;;;;;;;21.60;65.60;;;;;;5039475;28;1457;-67
2023/10/21 07:39:48;;;;;;;;;;;21.60;65.90;;;;;;5036103;28;1370;-67
2023/10/21 07:42:14;;;;;;;;;;;21.60;65.90;;;;;;5038461;28;1435;-66
2023/10/21 07:44:39;;;;;;;;;;;21.60;66.00;;;;;;5039533;28;1356;-67
2023/10/21 07:47:07;;;;;;;;;;;21.60;66.10;;;;;;5039049;28;1509;-67
2023/10/21 07:49:32;;;;;;;;;;;21.60;66.20;;;;;;5042304;28;1502;-67
2023/10/21 07:51:58;;;;;;;;;;;21.60;66.20;;;;;;5041079;28;1236;-67
2023/10/21 07:54:24;;;;;;;;;;;21.60;66.30;;;;;;5043093;28;2409;-67
2023/10/21 07:56:51;;;;;;;;;;;21.60;66.30;;;;;;5040685;28;1391;-66
2023/10/21 07:59:18;;;;;;;;;;;21.60;66.30;;;;;;5042620;28;1307;-67
2023/10/21 08:01:43;;;;;;;;;;;21.60;66.40;;;;;;5048137;28;1407;-67
2023/10/21 08:04:09;;;;;;;;;;;21.60;66.50;;;;;;5041266;28;1364;-67
2023/10/21 08:06:34;;;;;;;;;;;21.60;66.50;;;;;;5041887;28;1031;-67
2023/10/21 08:09:00;;;;;;;;;;;21.60;66.60;;;;;;5042468;28;1412;-66
2023/10/21 08:11:25;;;;;;;;;;;21.60;66.60;;;;;;5046095;28;1083;-66
2023/10/21 08:13:51;;;;;;;;;;;21.60;66.70;;;;;;5042726;28;1922;-67
2023/10/21 08:16:17;;;;;;;;;;;21.60;67.00;;;;;;5041425;28;1425;-67
2023/10/21 08:18:43;;;;;;;;;;;21.60;66.80;;;;;;5042210;28;1419;-67
2023/10/21 08:21:08;;;;;;;;;;;21.60;66.90;;;;;;5040359;28;1528;-67
2023/10/21 08:23:34;;;;;;;;;;;21.60;67.00;;;;;;5040967;28;1256;-67
2023/10/21 08:26:00;;;;;;;;;;;21.60;67.10;;;;;;5042630;28;1306;-67
2023/10/21 08:28:25;;;;;;;;;;;21.60;67.20;;;;;;5041245;28;1426;-67
2023/10/21 08:30:51;;;;;;;;;;;21.60;67.20;;;;;;5039929;28;1364;-67
2023/10/21 08:33:16;;;;;;;;;;;21.60;67.20;;;;;;5040088;28;1898;-66
2023/10/21 08:35:42;;;;;;;;;;;21.60;67.30;;;;;;5039116;28;1315;-66
2023/10/21 08:38:07;;;;;;;;;;;21.60;67.40;;;;;;5041334;28;1334;-66
2023/10/21 08:40:35;;;;;;;;;;;21.60;67.40;;;;;;5038887;28;1370;-66
2023/10/21 08:43:01;;;;;;;;;;;21.50;67.30;;;;;;5039176;28;1327;-66
2023/10/21 08:45:26;;;;;;;;;;;21.60;67.40;;;;;;5043925;28;1220;-66
2023/10/21 08:47:52;;;;;;;;;;;21.50;67.40;;;;;;5041969;28;1405;-66
2023/10/21 08:50:17;;;;;;;;;;;21.50;67.50;;;;;;5046878;28;1379;-67
2023/10/21 08:52:43;;;;;;;;;;;21.60;67.60;;;;;;5042076;28;1298;-67
2023/10/21 08:55:09;;;;;;;;;;;21.60;67.60;;;;;;5043490;28;1913;-67
2023/10/21 08:57:36;;;;;;;;;;;21.60;67.60;;;;;;5045474;28;1574;-67
2023/10/21 09:00:04;;;;;;;;;;;21.50;67.60;;;;;;5037602;28;1262;-67
2023/10/21 09:02:29;;;;;;;;;;;21.50;67.60;;;;;;5040616;28;1442;-67
2023/10/21 09:04:55;;;;;;;;;;;21.50;67.60;;;;;;5040164;28;1390;-66
2023/10/21 09:07:20;;;;;;;;;;;21.50;67.60;;;;;;5040745;28;1506;-66
2023/10/21 09:09:46;;;;;;;;;;;21.50;67.70;;;;;;5038150;28;1498;-67
2023/10/21 09:12:13;;;;;;;;;;;21.50;67.70;;;;;;5039201;28;1497;-67
2023/10/21 09:14:59;;;;;;;;;;;21.50;67.70;;;;;;5039599;28;1970;-66
2023/10/21 09:17:43;;;;;;;;;;;21.50;67.70;;;;;;5035590;28;1730;-66
2023/10/21 09:20:15;;;;;;;;;;;21.50;67.80;;;;;;5036635;28;1226;-66
2023/10/21 09:22:41;;;;;;;;;;;21.50;67.90;;;;;;5040518;28;1618;-66
2023/10/21 09:25:07;;;;;;;;;;;21.50;67.90;;;;;;5042181;28;1369;-66
2023/10/21 09:27:33;;;;;;;;;;;21.50;67.90;;;;;;5042995;28;1246;-66
2023/10/21 09:29:58;;;;;;;;;;;21.50;68.00;;;;;;5040894;28;1295;-66
2023/10/21 09:32:28;;;;;;;;;;;21.50;68.00;;;;;;5041122;28;1890;-66
2023/10/21 09:34:53;;;;;;;;;;;21.50;68.10;;;;;;5036256;28;1893;-66
2023/10/21 09:37:19;;;;;;;;;;;21.50;68.10;;;;;;5039991;28;1542;-67
2023/10/21 09:39:44;;;;;;;;;;;21.40;68.00;;;;;;5046128;28;1535;-66
2023/10/21 09:42:10;;;;;;;;;;;21.50;68.10;;;;;;5041847;28;1511;-66
2023/10/21 09:44:36;;;;;;;;;;;21.40;68.10;;;;;;5041552;28;1462;-66
2023/10/21 09:47:03;;;;;;;;;;;21.40;68.10;;;;;;5041537;28;1406;-66
2023/10/21 09:49:29;;;;;;;;;;;21.40;68.10;;;;;;5038284;28;1753;-66
2023/10/21 09:51:54;;;;;;;;;;;21.40;68.20;;;;;;5042474;28;1318;-66
2023/10/21 09:54:30;;;;;;;;;;;21.50;68.20;;;;;;5040592;28;1910;-66
2023/10/21 09:56:55;;;;;;;;;;;21.40;68.30;;;;;;5041908;28;1484;-66
2023/10/21 09:59:21;;;;;;;;;;;21.50;68.20;;;;;;5042188;28;1399;-66
2023/10/21 10:01:47;;;;;;;;;;;21.50;68.40;;;;;;5047041;28;1476;-67
2023/10/21 10:04:13;;;;;;;;;;;21.50;68.40;;;;;;5041748;28;1362;-66
2023/10/21 10:06:38;;;;;;;;;;;21.50;68.30;;;;;;5039458;28;1376;-66
2023/10/21 10:09:06;;;;;;;;;;;21.50;68.40;;;;;;5038033;28;2117;-66
2023/10/21 10:11:31;;;;;;;;;;;21.50;68.30;;;;;;5042116;28;1499;-66
2023/10/21 10:13:57;;;;;;;;;;;21.50;68.30;;;;;;5042941;28;1902;-66
2023/10/21 10:16:23;;;;;;;;;;;21.50;68.40;;;;;;5045080;28;1315;-66
2023/10/21 10:18:55;;;;;;;;;;;21.50;68.30;;;;;;5038506;28;1514;-66
2023/10/21 10:21:21;;;;;;;;;;;21.50;68.40;;;;;;5039004;28;1436;-66
2023/10/21 10:23:57;;;;;;;;;;;21.50;68.40;;;;;;5044380;28;2009;-66
2023/10/21 10:26:27;;;;;;;;;;;21.50;68.40;;;;;;5038303;28;2099;-66
2023/10/21 10:28:53;;;;;;;;;;;21.60;68.50;;;;;;5036709;28;1386;-66
2023/10/21 10:31:18;;;;;;;;;;;21.60;68.40;;;;;;5039569;28;1513;-66
2023/10/21 10:33:50;;;;;;;;;;;21.60;68.40;;;;;;5038748;28;2181;-66
2023/10/21 10:36:17;;;;;;;;;;;21.60;68.50;;;;;;5038030;28;1261;-66
2023/10/21 10:38:44;;;;;;;;;;;21.60;68.40;;;;;;5040659;28;2198;-66
2023/10/21 10:41:11;;;;;;;;;;;21.60;68.50;;;;;;5042656;28;1847;-66
2023/10/21 10:43:41;;;;;;;;;;;21.60;68.60;;;;;;5036956;28;2059;-66
2023/10/21 10:46:06;;;;;;;;;;;21.60;68.60;;;;;;5037860;28;2095;-66
2023/10/21 10:48:32;;;;;;;;;;;21.60;68.60;;;;;;5040143;28;2163;-66
2023/10/21 10:50:58;;;;;;;;;;;21.60;68.60;;;;;;5039648;28;1616;-66
2023/10/21 10:53:23;;;;;;;;;;;21.60;68.70;;;;;;5039751;28;1909;-66
2023/10/21 10:55:49;;;;;;;;;;;21.60;68.60;;;;;;5039129;28;1421;-66
2023/10/21 10:58:15;;;;;;;;;;;21.60;68.70;;;;;;5037845;28;1937;-66
2023/10/21 11:00:41;;;;;;;;;;;21.60;68.70;;;;;;5040116;28;1305;-66
2023/10/21 11:03:07;;;;;;;;;;;21.60;68.60;;;;;;5035919;28;1858;-67
2023/10/21 11:05:33;;;;;;;;;;;21.60;68.70;;;;;;5041890;28;1256;-66
2023/10/21 11:07:59;;;;;;;;;;;21.60;68.80;;;;;;5049667;28;1517;-65
2023/10/21 11:10:25;;;;;;;;;;;21.60;68.70;;;;;;5043620;28;1459;-66
2023/10/21 11:12:50;;;;;;;;;;;21.50;68.60;;;;;;5035565;28;1236;-66
2023/10/21 11:15:19;;;;;;;;;;;21.60;68.80;;;;;;5039615;28;1914;-66
2023/10/21 11:17:47;;;;;;;;;;;21.60;68.80;;;;;;5046623;28;1442;-66
2023/10/21 11:20:13;;;;;;;;;;;21.60;68.80;;;;;;5040152;28;1445;-66
2023/10/21 11:22:39;;;;;;;;;;;21.50;68.80;;;;;;5043734;28;1848;-66
2023/10/21 11:25:05;;;;;;;;;;;21.50;68.80;;;;;;5039629;28;2146;-66
2023/10/21 11:27:30;;;;;;;;;;;21.50;68.80;;;;;;5041499;28;1304;-66
2023/10/21 11:29:56;;;;;;;;;;;21.50;68.70;;;;;;5045299;28;1539;-66
2023/10/21 11:32:26;;;;;;;;;;;21.50;68.80;;;;;;5049760;28;1633;-66
2023/10/21 11:34:51;;;;;;;;;;;21.50;68.80;;;;;;5042971;28;1969;-66
2023/10/21 11:37:18;;;;;;;;;;;21.50;68.90;;;;;;5044695;28;1350;-66
2023/10/21 11:39:43;;;;;;;;;;;21.50;68.80;;;;;;5042041;28;1354;-66
2023/10/21 11:42:17;;;;;;;;;;;21.50;69.00;;;;;;5041974;28;1217;-66
2023/10/21 11:44:42;;;;;;;;;;;21.50;69.00;;;;;;5042000;28;1417;-67
2023/10/21 11:47:08;;;;;;;;;;;21.50;69.10;;;;;;5041431;28;1309;-66
2023/10/21 11:49:37;;;;;;;;;;;21.50;69.20;;;;;;5039245;28;1893;-66
2023/10/21 11:52:03;;;;;;;;;;;21.50;69.20;;;;;;5039169;28;1397;-66
2023/10/21 11:54:50;;;;;;;;;;;21.50;69.30;;;;;;5040282;28;1910;-66
2023/10/21 12:23:59;;;;;;;;;;;21.10;66.50;;;;;;4973981;28;2227;-68
2023/10/21 12:29:51;;;;;;;;;;;21.00;66.50;;;;;;5041922;28;1679;-67
2023/10/21 12:42:49;;;;;;;;;;;20.90;66.60;;;;;;5046048;28;1291;-67
2023/10/21 12:45:22;;;;;;;;;;;20.90;66.60;;;;;;5040240;28;1341;-67
2023/10/21 12:47:48;;;;;;;;;;;20.80;66.60;;;;;;5039263;28;1233;-67
2023/10/21 12:50:14;;;;;;;;;;;20.80;66.60;;;;;;5041916;28;1530;-67
2023/10/21 12:52:49;;;;;;;;;;;20.80;66.70;;;;;;5041078;28;1445;-67
2023/10/21 12:55:14;;;;;;;;;;;20.80;66.70;;;;;;5041997;28;1910;-67
2023/10/21 12:57:43;;;;;;;;;;;20.80;66.60;;;;;;5055648;28;1409;-67
2023/10/21 13:00:09;;;;;;;;;;;20.80;66.60;;;;;;5042305;28;1279;-67
2023/10/21 13:02:35;;;;;;;;;;;20.70;66.50;;;;;;5046467;28;1425;-67
2023/10/21 13:05:01;;;;;;;;;;;20.70;66.60;;;;;;5051274;28;1404;-67
2023/10/21 13:07:27;;;;;;;;;;;20.70;67.40;;;;;;5039205;28;1337;-67
2023/10/21 13:09:52;;;;;;;;;;;20.70;66.30;;;;;;5039891;28;1363;-67
2023/10/21 13:12:18;;;;;;;;;;;20.70;66.50;;;;;;5043024;28;1273;-68
2023/10/21 13:14:44;;;;;;;;;;;20.70;66.50;;;;;;5043425;28;1956;-68
2023/10/21 13:17:11;;;;;;;;;;;20.70;66.50;;;;;;5040590;28;1304;-68
2023/10/21 13:19:37;;;;;;;;;;;20.70;66.60;;;;;;5042004;28;1392;-68
2023/10/21 13:22:05;;;;;;;;;;;20.70;66.50;;;;;;5040227;28;1344;-66
2023/10/21 13:24:34;;;;;;;;;;;20.70;66.70;;;;;;5043019;28;1613;-66
2023/10/21 13:26:59;;;;;;;;;;;20.60;66.50;;;;;;5038489;28;1503;-66
2023/10/21 13:29:25;;;;;;;;;;;20.60;66.40;;;;;;5043404;28;1374;-66
2023/10/21 13:31:50;;;;;;;;;;;20.60;66.50;;;;;;5040880;28;1432;-66
2023/10/21 13:34:15;;;;;;;;;;;20.60;66.50;;;;;;5040464;28;1979;-66
2023/10/21 13:36:41;;;;;;;;;;;20.60;66.50;;;;;;5039429;28;1523;-66
2023/10/21 13:39:17;;;;;;;;;;;20.60;66.50;;;;;;5041705;28;1391;-67
2023/10/21 13:41:42;;;;;;;;;;;20.60;66.40;;;;;;5040389;28;1725;-66
2023/10/21 13:44:08;;;;;;;;;;;20.60;66.30;;;;;;5040139;28;1306;-67
2023/10/21 13:46:34;;;;;;;;;;;20.60;66.20;;;;;;5039711;28;1328;-66
2023/10/21 13:49:01;;;;;;;;;;;20.60;66.30;;;;;;5038605;28;1917;-67
2023/10/21 13:51:26;;;;;;;;;;;20.60;66.30;;;;;;5041298;28;1279;-67
2023/10/21 13:53:53;;;;;;;;;;;20.50;66.30;;;;;;5038767;28;1954;-67
2023/10/21 13:56:19;;;;;;;;;;;20.50;66.30;;;;;;5037934;28;1327;-67
2023/10/21 13:58:46;;;;;;;;;;;20.50;66.40;;;;;;5036400;28;1570;-67
2023/10/21 14:01:13;;;;;;;;;;;20.50;66.30;;;;;;5038198;28;1831;-67
2023/10/21 14:03:39;;;;;;;;;;;20.50;66.30;;;;;;5040079;28;1383;-67
2023/10/21 14:06:04;;;;;;;;;;;20.50;66.30;;;;;;5038419;28;1345;-67
2023/10/21 14:08:30;;;;;;;;;;;20.50;66.40;;;;;;5036993;28;2624;-67
2023/10/21 14:10:56;;;;;;;;;;;20.50;66.40;;;;;;5044179;28;2440;-67
2023/10/21 14:13:24;;;;;;;;;;;20.50;66.40;;;;;;5042056;28;2523;-67
2023/10/21 14:15:54;;;;;;;;;;;20.50;66.50;;;;;;5043697;28;3557;-66
2023/10/21 14:18:19;;;;;;;;;;;20.50;66.50;;;;;;5045701;28;2387;-67
2023/10/21 14:20:49;;;;;;;;;;;20.50;66.50;;;;;;5038458;28;1281;-67
2023/10/21 14:23:15;;;;;;;;;;;20.50;66.30;;;;;;5035773;28;1561;-67
2023/10/21 14:25:41;;;;;;;;;;;20.50;66.20;;;;;;5039762;28;1431;-67
2023/10/21 14:28:10;;;;;;;;;;;20.40;66.20;;;;;;5044492;28;1384;-67
2023/10/21 14:30:46;;;;;;;;;;;20.50;66.20;;;;;;5041518;28;1610;-67
2023/10/21 14:33:20;;;;;;;;;;;20.40;66.20;;;;;;5037662;28;1419;-67
2023/10/21 14:35:46;;;;;;;;;;;20.40;66.20;;;;;;5038024;28;1908;-67
2023/10/21 14:38:12;;;;;;;;;;;20.40;66.20;;;;;;5040676;28;1482;-67
2023/10/21 14:40:37;;;;;;;;;;;20.40;66.00;;;;;;5040569;28;1287;-67
2023/10/21 14:43:04;;;;;;;;;;;20.40;66.00;;;;;;5037617;28;1532;-67
2023/10/21 14:45:30;;;;;;;;;;;20.40;65.90;;;;;;5037388;28;2166;-67
2023/10/21 14:47:58;;;;;;;;;;;20.40;65.80;;;;;;5039086;28;1408;-67
2023/10/21 14:50:24;;;;;;;;;;;20.40;65.80;;;;;;5037956;28;1251;-67
2023/10/21 14:52:50;;;;;;;;;;;20.40;65.80;;;;;;5040380;28;1255;-67
2023/10/21 14:55:16;;;;;;;;;;;20.40;65.80;;;;;;5036678;28;1907;-67
2023/10/21 14:57:42;;;;;;;;;;;20.40;65.70;;;;;;5037264;28;1278;-67
2023/10/21 15:00:13;;;;;;;;;;;20.40;65.70;;;;;;5044112;28;1434;-67
2023/10/21 15:02:38;;;;;;;;;;;20.40;65.70;;;;;;5043228;28;1282;-67
2023/10/21 15:05:06;;;;;;;;;;;20.40;65.70;;;;;;5041458;28;1447;-67